Strona główna
METAR-TAF:

METAR-TAF

Lotnisko :

Port lotniczy Moroni

Moroni, Komory

Szerokość geograficzna: 11-32S, Długość geograficzna: 043-16E, wysokość: 29 m

Aktualna obserwacja pogody

Raport powstał 1 godzina i 33 minut temu, godzina 07:00 UTC
Wiatr 5 kt od południowy zachód
Temperatura 31°C
Wilgotność 66%
Ciśnienie 1012 hPa
Widzialność 10 km lub więcej
Mało chmury na wysokości 2000 ft

METAR: FMCH 230700Z 23005KT 9999 FEW020 31/24 Q1012 NOSIG

czas: 11:33 (08:33 UTC)

Prognoza

Raport powstał 3 godziny i 33 minut temu, godzina 05:00 UTC
Prognoza ważna od 23 godzina 06 UTC do 24 godzina 12 UTC
Wiatr 10 kt od północ
Widzialność 10 km lub więcej
Mało chmury na wysokości 2000 ft
Rozproszone chmury na wysokości 3000 ft
Stopniowe zmiany
od 23 godzina 14 UTC do 23 godzina 16 UTC
Wiatr 5 kt od wschód
Stopniowe zmiany
od 24 godzina 05 UTC do 24 godzina 07 UTC
Wiatr 10 kt od północno-północny zachód

TAF: FMCH 230500Z 2306/2412 35010KT 9999 FEW020 SCT030 BECMG 2314/2316 10005KT BECMG 2405/2407 34010KT

Obserwacja i prognoza pogody dla ponad 4000 lotnisk (raport METAR i TAF).

Dostępne stacje oznaczono żółtymi i czerwonymi punktami na mapie.

Najedź kursorem aby zobaczyć nazwę stacji.

Kliknij aby zobaczyć obserwacje i prognozy pogody.

Aby zmienić mapę: kliknij na zielony przycisk z czarnym krzyżykiem, aby powiększyć; na zielony przycisk z myślnikiem, aby pomniejszyć; na zielone strzałki, aby przejść do map sąsiednich.


METAR-TAF: